Moyer Aviation Incorporated

Pocono Mountains Airport

188 Airport Rd. Tobyhanna, PA 18466 

P: 570-839-7161
800-321-5890
F: 570-839-7162

Weather

Weather

Pocono Weather

KMPO 271953Z AUTO 24012G19KT 10SM BKN090 OVC100 07/M07 A3029 RMK AO2 SLP273 T00671067

Allentown Weather

KABE 271951Z AUTO 27006KT 10SM OVC085 11/M02 A3035 RMK AO2 SLP279 T01061022

Wilkes-Barre Weather

KAVP 271954Z 25007KT 10SM BKN085 10/M06 A3029 RMK AO2 SLP262 T01001061


* required field

Contact Us